M I D A S
Marine Information and Data Acquisition System
Tripno 2307 of the Zeeleeuw from 2012-05-04 07:47:58 to 2012-05-04 12:19:55
Back to CruiseResearch ActivitiesStationsMapUnderway DataData graphs

EquipmentUnitsComment
TimeDGPSUTC
LatitudeDGPSDM.mWGS84
LongitudeDGPSDM.mWGS84
HeadingGyrodeg 
SOGDGPSknotsSpeed over ground
COGDGPSdegCourse over ground
DepthEcho soundermeters200 kHz
Missing or incorrect values are displayed as -999
Navigation data collected by the RV Zeeleeuw from 2012-05-04 07:44:51 to 2012-05-04 12:28:01
                                                                                    Next 1000 lines
Time Latitude Longitude Heading SOG COG Depth
2012-05-04 07:45:01 51°13.633 2°56.013 102.5 1.3 281 -999
2012-05-04 07:45:06 51°13.634 2°56.01 102.6 1.8 285 -999
2012-05-04 07:45:11 51°13.634 2°56.005 103.2 2.3 284 -999
2012-05-04 07:45:16 51°13.635 2°55.999 103.8 2.7 284 -999
2012-05-04 07:45:21 51°13.636 2°55.993 104.2 3 285 -999
2012-05-04 07:45:26 51°13.638 2°55.986 104.6 3.1 286 -999
2012-05-04 07:45:31 51°13.639 2°55.98 105.3 3.2 285 -999
2012-05-04 07:45:36 51°13.64 2°55.973 105.6 3.3 286 -999
2012-05-04 07:45:41 51°13.641 2°55.965 106 3.5 285 -999
2012-05-04 07:45:46 51°13.642 2°55.958 106.2 3.7 286 -999
2012-05-04 07:45:51 51°13.644 2°55.95 106.8 3.8 285 -999
2012-05-04 07:45:56 51°13.645 2°55.941 107.3 3.9 286 -999
2012-05-04 07:46:01 51°13.647 2°55.933 108 4 286 -999
2012-05-04 07:46:07 51°13.649 2°55.923 109.2 4.1 288 -999
2012-05-04 07:46:11 51°13.65 2°55.916 111.3 4.2 290 -999
2012-05-04 07:46:16 51°13.653 2°55.906 113.2 4.4 291 -999
2012-05-04 07:46:21 51°13.655 2°55.897 115.3 4.5 293 -999
2012-05-04 07:46:26 51°13.658 2°55.888 116.9 4.6 295 -999
2012-05-04 07:46:31 51°13.661 2°55.879 118.7 4.6 296 -999
2012-05-04 07:46:36 51°13.664 2°55.87 120.1 4.7 298 -999
2012-05-04 07:46:41 51°13.667 2°55.861 121.4 4.7 299 -999
2012-05-04 07:46:46 51°13.671 2°55.852 123.1 4.7 301 -999
2012-05-04 07:46:51 51°13.674 2°55.843 124.6 4.7 302 -999
2012-05-04 07:46:56 51°13.677 2°55.835 126 4.6 302 -999
2012-05-04 07:47:01 51°13.681 2°55.826 126.8 4.6 303 -999
2012-05-04 07:47:06 51°13.684 2°55.818 127.4 4.6 304 -999
2012-05-04 07:47:11 51°13.688 2°55.81 127.3 4.5 302 -999
2012-05-04 07:47:16 51°13.691 2°55.801 126.3 4.4 301 -999
2012-05-04 07:47:21 51°13.694 2°55.793 125.5 4.4 301 -999
2012-05-04 07:47:26 51°13.697 2°55.785 126.2 4.3 303 -999
2012-05-04 07:47:31 51°13.7 2°55.777 128.6 4.2 304 -999
2012-05-04 07:47:36 51°13.704 2°55.77 131.5 4.2 308 -999
2012-05-04 07:47:41 51°13.708 2°55.763 134.4 4.3 309 -999
2012-05-04 07:47:46 51°13.712 2°55.756 136.8 4.4 314 -999
2012-05-04 07:47:51 51°13.716 2°55.749 138.8 4.5 315 -999
2012-05-04 07:47:56 51°13.721 2°55.742 140.8 4.5 318 -999
2012-05-04 07:48:01 51°13.726 2°55.735 142.6 4.6 320 -999
2012-05-04 07:48:06 51°13.731 2°55.729 144.8 4.7 324 -999
2012-05-04 07:48:11 51°13.736 2°55.723 147.3 4.6 327 -999
2012-05-04 07:48:16 51°13.741 2°55.718 149.7 4.2 329 -999
2012-05-04 07:48:21 51°13.745 2°55.715 152.4 3.4 335 -999
2012-05-04 07:48:26 51°13.748 2°55.712 154.6 2.5 329 -999
2012-05-04 07:48:31 51°13.751 2°55.71 153.2 2 340 -999
2012-05-04 07:48:36 51°13.753 2°55.708 151.7 2.2 331 -999
2012-05-04 07:48:41 51°13.756 2°55.706 151.1 2.3 334 -999
2012-05-04 07:48:46 51°13.759 2°55.703 151.4 2.7 329 -999
2012-05-04 07:48:51 51°13.763 2°55.7 152.2 2.8 335 -999
2012-05-04 07:48:56 51°13.767 2°55.698 152.6 3.1 335 4.9
2012-05-04 07:49:01 51°13.771 2°55.694 152.9 3.3 336 -999
2012-05-04 07:49:06 51°13.776 2°55.691 153 3.6 334 -999
2012-05-04 07:49:11 51°13.78 2°55.688 152.4 3.7 333 -999
2012-05-04 07:49:16 51°13.786 2°55.683 151.3 4 332 -999
2012-05-04 07:49:21 51°13.791 2°55.679 150 4.2 330 -999
2012-05-04 07:49:26 51°13.796 2°55.674 149.1 4.4 329 -999
2012-05-04 07:49:31 51°13.801 2°55.669 148.9 4.5 328 -999
2012-05-04 07:49:36 51°13.807 2°55.664 149.1 4.6 329 -999
2012-05-04 07:49:41 51°13.812 2°55.658 149.8 4.8 329 -999
2012-05-04 07:49:46 51°13.818 2°55.653 150.8 4.9 331 -999
2012-05-04 07:49:51 51°13.824 2°55.647 151.6 5.1 331 -999
2012-05-04 07:49:56 51°13.831 2°55.642 152.3 5.2 332 -999
2012-05-04 07:50:01 51°13.838 2°55.637 153.2 5.3 332 -999
2012-05-04 07:50:06 51°13.844 2°55.631 153.9 5.3 334 -999
2012-05-04 07:50:11 51°13.851 2°55.626 154.7 5.4 334 -999
2012-05-04 07:50:16 51°13.858 2°55.621 155.6 5.3 335 -999
2012-05-04 07:50:21 51°13.864 2°55.617 156.7 5.2 335 -999
2012-05-04 07:50:26 51°13.87 2°55.612 157.8 4.9 336 -999
2012-05-04 07:50:31 51°13.876 2°55.608 159 4.6 337 -999
2012-05-04 07:50:36 51°13.882 2°55.604 160.7 4.5 338 -999
2012-05-04 07:50:41 51°13.888 2°55.601 162.6 4.3 340 -999
2012-05-04 07:50:46 51°13.893 2°55.598 164.7 4 342 -999
2012-05-04 07:50:51 51°13.898 2°55.596 167.5 3.8 344 -999
2012-05-04 07:50:56 51°13.903 2°55.594 169.7 3.7 346 -999
2012-05-04 07:51:01 51°13.908 2°55.592 172.6 3.5 349 -999
2012-05-04 07:51:06 51°13.913 2°55.591 175.4 3.4 352 -999
2012-05-04 07:51:11 51°13.917 2°55.59 178.6 3.2 354 -999
2012-05-04 07:51:16 51°13.922 2°55.59 180.6 3.2 356 -999
2012-05-04 07:51:21 51°13.926 2°55.59 183.1 3.1 359 -999
2012-05-04 07:51:26 51°13.93 2°55.59 185.8 3 2 -999
2012-05-04 07:51:31 51°13.934 2°55.59 188.2 3 4 -999
2012-05-04 07:51:36 51°13.938 2°55.591 190.8 2.9 6 -999
2012-05-04 07:51:41 51°13.942 2°55.592 193.2 2.8 9 -999
2012-05-04 07:51:46 51°13.946 2°55.593 195.7 2.8 12 -999
2012-05-04 07:51:51 51°13.95 2°55.594 198 2.8 14 -999
2012-05-04 07:51:56 51°13.953 2°55.596 200.3 2.8 16 -999
2012-05-04 07:52:01 51°13.957 2°55.598 202.5 2.8 19 -999
2012-05-04 07:52:06 51°13.961 2°55.6 204.7 2.8 21 -999
2012-05-04 07:52:11 51°13.964 2°55.603 206.9 2.8 23 -999
2012-05-04 07:52:16 51°13.968 2°55.605 209.2 2.8 25 -999
2012-05-04 07:52:21 51°13.971 2°55.608 211.7 2.6 27 -999
2012-05-04 07:52:26 51°13.974 2°55.611 213.9 2.5 29 -999
2012-05-04 07:52:31 51°13.977 2°55.613 215.7 2.2 31 -999
2012-05-04 07:52:36 51°13.979 2°55.615 217.5 1.8 29 -999
2012-05-04 07:52:41 51°13.981 2°55.616 219.7 1.3 28 -999
2012-05-04 07:52:46 51°13.981 2°55.617 222.5 0.6 19 -999
2012-05-04 07:52:51 51°13.982 2°55.617 226 0.3 358 -999
2012-05-04 07:52:56 51°13.982 2°55.616 230.2 0.2 312 -999
2012-05-04 07:53:01 51°13.982 2°55.616 233.7 0.4 264 -999
2012-05-04 07:53:06 51°13.982 2°55.614 238.9 0.6 255 -999
2012-05-04 07:53:11 51°13.981 2°55.613 243.2 0.8 253 -999
2012-05-04 07:53:16 51°13.981 2°55.61 247.6 1 258 -999
2012-05-04 07:53:21 51°13.98 2°55.607 251.8 1.3 260 -999
2012-05-04 07:53:26 51°13.98 2°55.604 256 1.8 263 -999
2012-05-04 07:53:31 51°13.98 2°55.599 261.2 2.1 268 -999
2012-05-04 07:53:36 51°13.98 2°55.594 266.9 2.3 271 -999
2012-05-04 07:53:41 51°13.981 2°55.588 273.1 2.7 278 -999
2012-05-04 07:53:46 51°13.981 2°55.582 279.4 2.9 283 -999
2012-05-04 07:53:51 51°13.983 2°55.576 285.9 3.1 289 -999
2012-05-04 07:53:56 51°13.985 2°55.569 292.5 3.2 295 -999
2012-05-04 07:54:01 51°13.988 2°55.563 299 3.4 303 -999
2012-05-04 07:54:06 51°13.991 2°55.557 305.7 3.5 309 -999
2012-05-04 07:54:11 51°13.994 2°55.551 312.4 3.7 315 -999
2012-05-04 07:54:16 51°13.999 2°55.546 318.9 3.8 320 -999
2012-05-04 07:54:21 51°14.003 2°55.541 324 4.1 324 -999
2012-05-04 07:54:26 51°14.008 2°55.535 326.9 4.4 326 -999
2012-05-04 07:54:31 51°14.014 2°55.53 328.8 4.7 328 -999
2012-05-04 07:54:36 51°14.02 2°55.524 330.1 5 328 -999
2012-05-04 07:54:41 51°14.027 2°55.518 331 5.4 329 -999
2012-05-04 07:54:46 51°14.034 2°55.512 331.4 5.8 329 -999
2012-05-04 07:54:51 51°14.041 2°55.505 331.7 6.3 330 -999
2012-05-04 07:54:56 51°14.049 2°55.498 332 6.6 330 -999
2012-05-04 07:55:01 51°14.058 2°55.49 332.4 7 330 -999
2012-05-04 07:55:07 51°14.069 2°55.48 333 7.4 331 -999
2012-05-04 07:55:11 51°14.076 2°55.473 332.5 7.7 330 -999
2012-05-04 07:55:16 51°14.086 2°55.465 332.5 7.9 331 -999
2012-05-04 07:55:21 51°14.096 2°55.456 333.4 8.2 331 -999
2012-05-04 07:55:26 51°14.106 2°55.447 333.5 8.5 331 -999
2012-05-04 07:55:31 51°14.117 2°55.437 332.6 8.7 330 -999
2012-05-04 07:55:36 51°14.128 2°55.428 333.2 8.8 332 -999
2012-05-04 07:55:41 51°14.138 2°55.418 333.1 9.2 329 -999
2012-05-04 07:55:46 51°14.149 2°55.407 331.1 9.2 329 -999
2012-05-04 07:55:51 51°14.16 2°55.397 331.6 9.3 330 -999
2012-05-04 07:55:56 51°14.172 2°55.386 332.1 9.5 330 -999
2012-05-04 07:56:01 51°14.183 2°55.375 331.8 9.6 329 -999
2012-05-04 07:56:06 51°14.195 2°55.365 332.4 9.7 330 -999
2012-05-04 07:56:11 51°14.206 2°55.354 332.7 9.7 330 -999
2012-05-04 07:56:16 51°14.218 2°55.344 333.1 9.9 330 -999
2012-05-04 07:56:21 51°14.23 2°55.332 331.8 10.1 328 -999
2012-05-04 07:56:26 51°14.242 2°55.32 330.3 10.1 328 -999
2012-05-04 07:56:31 51°14.254 2°55.308 330.9 10.2 330 -999
2012-05-04 07:56:36 51°14.267 2°55.297 331.7 10.4 330 -999
2012-05-04 07:56:41 51°14.279 2°55.284 331.2 10.5 329 -999
2012-05-04 07:56:46 51°14.292 2°55.273 331.6 10.6 331 -999
2012-05-04 07:56:51 51°14.305 2°55.262 332.5 10.7 331 -999
2012-05-04 07:56:56 51°14.318 2°55.25 333.2 10.8 331 -999
2012-05-04 07:57:01 51°14.331 2°55.237 332 11 328 -999
2012-05-04 07:57:06 51°14.345 2°55.225 331.2 11 331 -999
2012-05-04 07:57:11 51°14.358 2°55.214 332.7 11.2 331 -999
2012-05-04 07:57:16 51°14.372 2°55.201 331.9 11.3 328 -999
2012-05-04 07:57:21 51°14.385 2°55.187 329.7 11.4 327 -999
2012-05-04 07:57:26 51°14.398 2°55.173 329 11.5 327 -999
2012-05-04 07:57:31 51°14.411 2°55.159 328.4 11.5 326 -999
2012-05-04 07:57:36 51°14.425 2°55.145 328.5 11.6 326 -999
2012-05-04 07:57:41 51°14.438 2°55.13 328.4 11.7 325 -999
2012-05-04 07:57:46 51°14.451 2°55.114 326.9 11.7 324 -999
2012-05-04 07:57:51 51°14.465 2°55.1 327.9 11.7 327 -999
2012-05-04 07:57:56 51°14.478 2°55.086 329 11.8 327 -999
2012-05-04 07:58:01 51°14.493 2°55.073 330.7 11.8 330 -999
2012-05-04 07:58:06 51°14.507 2°55.059 331.7 11.9 328 -999
2012-05-04 07:58:11 51°14.52 2°55.045 330.8 11.9 326 11.2
2012-05-04 07:58:16 51°14.534 2°55.03 330.3 11.9 326 -999
2012-05-04 07:58:21 51°14.547 2°55.014 329.4 11.9 323 11.9
2012-05-04 07:58:26 51°14.56 2°54.998 327.4 11.9 322 -999
2012-05-04 07:58:31 51°14.573 2°54.981 326 12 318 -999
2012-05-04 07:58:36 51°14.584 2°54.962 322.6 12 315 -999
2012-05-04 07:58:41 51°14.595 2°54.942 319.2 12 310 -999
2012-05-04 07:58:46 51°14.605 2°54.921 314.5 12 307 -999
2012-05-04 07:58:51 51°14.615 2°54.899 312.1 12.1 304 -999
2012-05-04 07:58:56 51°14.623 2°54.876 309.8 12 302 -999
2012-05-04 07:59:01 51°14.632 2°54.853 307 12.1 298 -999
2012-05-04 07:59:06 51°14.638 2°54.829 304.1 12.1 294 -999
2012-05-04 07:59:11 51°14.645 2°54.804 300.2 12.1 291 -999
2012-05-04 07:59:16 51°14.649 2°54.778 296.8 12.1 287 -999
2012-05-04 07:59:21 51°14.653 2°54.752 292.5 12 283 -999
2012-05-04 07:59:26 51°14.655 2°54.725 286.8 12.1 277 12
2012-05-04 07:59:31 51°14.655 2°54.698 282.8 12.1 272 11.9
2012-05-04 07:59:36 51°14.655 2°54.672 277.7 12.1 268 11.7
2012-05-04 07:59:40 51°14.653 2°54.65 273.6 12.1 263 11.7
2012-05-04 07:59:45 51°14.65 2°54.624 268.3 12.1 260 11.5
2012-05-04 07:59:50 51°14.645 2°54.598 263.8 12.1 254 11.2
2012-05-04 07:59:55 51°14.639 2°54.573 258.6 12.2 249 11.1
2012-05-04 08:00:00 51°14.632 2°54.548 253.3 12.2 246 11
2012-05-04 08:00:04 51°14.626 2°54.528 248.9 12.3 244 11.4
2012-05-04 08:00:10 51°14.615 2°54.499 245.4 12.4 241 11.1
2012-05-04 08:00:15 51°14.607 2°54.475 242.6 12.5 240 11.1
2012-05-04 08:00:20 51°14.598 2°54.452 241.8 12.5 239 11.1
2012-05-04 08:00:24 51°14.59 2°54.434 239.6 12.6 236 11.2
2012-05-04 08:00:29 51°14.58 2°54.411 237.2 12.6 235 11.1
2012-05-04 08:00:34 51°14.57 2°54.388 234.9 12.7 234 11.3
2012-05-04 08:00:39 51°14.56 2°54.365 235.2 12.6 235 10.8
2012-05-04 08:00:44 51°14.55 2°54.342 236.2 12.7 236 10.9
2012-05-04 08:00:48 51°14.542 2°54.324 236 12.7 234 11.2
2012-05-04 08:00:53 51°14.531 2°54.302 234.6 12.7 233 11
2012-05-04 08:00:58 51°14.521 2°54.279 233.8 12.7 233 10.7
2012-05-04 08:01:03 51°14.51 2°54.257 234.2 12.6 233 10.6
2012-05-04 08:01:08 51°14.499 2°54.235 233.2 12.7 231 10.8
2012-05-04 08:01:12 51°14.491 2°54.217 232.2 12.7 232 10.6
2012-05-04 08:01:18 51°14.477 2°54.192 230.7 12.8 230 10.6
2012-05-04 08:01:23 51°14.466 2°54.169 231.3 12.7 232 10.7
2012-05-04 08:01:28 51°14.455 2°54.147 231.8 12.8 231 11
2012-05-04 08:01:32 51°14.447 2°54.129 233.4 12.7 235 10.6
2012-05-04 08:01:37 51°14.436 2°54.107 233.4 12.8 231 10.6
2012-05-04 08:01:43 51°14.423 2°54.08 233.1 12.7 234 10.6
2012-05-04 08:01:48 51°14.413 2°54.057 233.8 12.8 233 10.7
2012-05-04 08:01:52 51°14.404 2°54.039 234.3 12.8 235 10.6
2012-05-04 08:01:58 51°14.392 2°54.011 235 12.7 233 10.5
2012-05-04 08:02:03 51°14.382 2°53.988 235.7 12.8 236 10.5
2012-05-04 08:02:08 51°14.372 2°53.966 235.9 12.6 233 10.5
2012-05-04 08:02:12 51°14.363 2°53.948 234.3 12.8 233 10.8
2012-05-04 08:02:18 51°14.351 2°53.921 233.5 12.6 233 10.6
2012-05-04 08:02:23 51°14.34 2°53.898 233.9 12.7 233 10.5
2012-05-04 08:02:28 51°14.329 2°53.876 234 12.8 233 10.6
2012-05-04 08:02:33 51°14.319 2°53.853 234.2 12.8 235 10.5
2012-05-04 08:02:38 51°14.309 2°53.83 235.3 12.6 235 10.1
2012-05-04 08:02:43 51°14.298 2°53.808 234.5 12.8 233 10.5
2012-05-04 08:02:48 51°14.288 2°53.785 234.5 12.7 234 10.3
2012-05-04 08:02:52 51°14.28 2°53.767 234.9 12.7 232 10.4
2012-05-04 08:02:58 51°14.267 2°53.741 233.2 12.6 231 10.2
2012-05-04 08:03:03 51°14.255 2°53.72 230.9 12.8 229 10.4
2012-05-04 08:03:08 51°14.243 2°53.699 230.2 12.6 228 10.4
2012-05-04 08:03:12 51°14.234 2°53.683 229.2 12.6 227 10.3
2012-05-04 08:03:18 51°14.22 2°53.657 228.1 12.7 230 10.3
2012-05-04 08:03:23 51°14.208 2°53.636 229.4 12.6 228 10.3
2012-05-04 08:03:28 51°14.196 2°53.616 229.3 12.6 227 10.3
2012-05-04 08:03:33 51°14.184 2°53.596 227.3 12.6 226 10.4
2012-05-04 08:03:38 51°14.172 2°53.576 227.1 12.6 226 10.3
2012-05-04 08:03:43 51°14.16 2°53.557 225.5 12.6 224 10.4
2012-05-04 08:03:48 51°14.148 2°53.536 225.8 12.6 226 10.3
2012-05-04 08:03:52 51°14.137 2°53.522 224.7 12.7 224 10.5
2012-05-04 08:03:58 51°14.124 2°53.497 226.1 12.3 226 10.2
2012-05-04 08:04:03 51°14.11 2°53.478 224.8 12.8 223 10.7
2012-05-04 08:04:08 51°14.1 2°53.456 226.9 12.5 231 10.2
2012-05-04 08:04:12 51°14.089 2°53.442 227 12.6 222 10.4
2012-05-04 08:04:18 51°14.076 2°53.416 226.8 12.7 232 10.4
2012-05-04 08:04:23 51°14.064 2°53.396 229.9 12.4 226 10.1
2012-05-04 08:04:28 51°14.052 2°53.374 228.7 12.8 231 10.4
2012-05-04 08:04:32 51°14.044 2°53.356 231.5 12.4 231 10.1
2012-05-04 08:04:38 51°14.03 2°53.331 230.3 12.8 230 10.5
2012-05-04 08:04:43 51°14.02 2°53.309 232.5 12.5 234 10.3
2012-05-04 08:04:48 51°14.008 2°53.288 231.8 12.7 229 10.5
2012-05-04 08:04:53 51°13.999 2°53.265 232.1 12.6 235 10.3
2012-05-04 08:04:58 51°13.986 2°53.245 231.9 12.7 228 10.4
2012-05-04 08:05:03 51°13.977 2°53.222 232 12.6 234 10.4
2012-05-04 08:05:08 51°13.965 2°53.201 232.4 12.6 230 10.4
2012-05-04 08:05:13 51°13.955 2°53.178 232.2 12.6 233 10.6
2012-05-04 08:05:18 51°13.944 2°53.157 232.9 12.5 232 10.4
2012-05-04 08:05:23 51°13.933 2°53.135 232.7 12.7 231 10.7
2012-05-04 08:05:28 51°13.922 2°53.112 233 12.7 234 10.4
2012-05-04 08:05:32 51°13.914 2°53.095 234.1 12.6 232 10.6
2012-05-04 08:05:38 51°13.902 2°53.067 236.2 12.6 236 10.4
2012-05-04 08:05:43 51°13.892 2°53.044 236 12.7 234 10.6
2012-05-04 08:05:48 51°13.882 2°53.021 236 12.6 236 10.5
2012-05-04 08:05:52 51°13.874 2°53.003 235.9 12.6 234 10.5
2012-05-04 08:05:58 51°13.862 2°52.976 235.9 12.7 235 10.6
2012-05-04 08:06:03 51°13.852 2°52.952 236.9 12.6 238 10.5
2012-05-04 08:06:08 51°13.843 2°52.929 238.1 12.6 235 10.7
2012-05-04 08:06:13 51°13.834 2°52.905 239.3 12.7 241 10.6
2012-05-04 08:06:18 51°13.823 2°52.883 238.7 12.5 231 11
2012-05-04 08:06:23 51°13.814 2°52.859 236.3 12.8 239 10.6
2012-05-04 08:06:28 51°13.804 2°52.836 238 12.5 236 10.6
2012-05-04 08:06:32 51°13.797 2°52.818 238 12.6 237 10.6
2012-05-04 08:06:38 51°13.785 2°52.79 237.4 12.6 236 10.8
2012-05-04 08:06:43 51°13.775 2°52.766 238.2 12.6 238 10.8
2012-05-04 08:06:48 51°13.766 2°52.743 238.8 12.6 237 10.8
2012-05-04 08:06:52 51°13.758 2°52.724 239.2 12.7 238 10.7
2012-05-04 08:06:58 51°13.747 2°52.695 239.7 12.6 239 10.9
2012-05-04 08:07:03 51°13.738 2°52.672 240.4 12.5 238 10.8
2012-05-04 08:07:08 51°13.728 2°52.648 239.3 12.7 238 10.9
2012-05-04 08:07:13 51°13.719 2°52.624 240 12.5 238 11.1
2012-05-04 08:07:18 51°13.71 2°52.601 239.7 12.7 238 10.9
2012-05-04 08:07:23 51°13.701 2°52.577 239 12.6 238 11.1
2012-05-04 08:07:28 51°13.692 2°52.553 239.6 12.6 239 10.9
2012-05-04 08:07:32 51°13.684 2°52.534 239.4 12.7 237 11
2012-05-04 08:07:38 51°13.673 2°52.506 239 12.6 237 11.2
2012-05-04 08:07:43 51°13.663 2°52.482 238.6 12.7 237 11.1
2012-05-04 08:07:48 51°13.653 2°52.459 238.7 12.7 238 11
2012-05-04 08:07:52 51°13.646 2°52.44 239 12.6 238 11
2012-05-04 08:07:58 51°13.635 2°52.412 238.9 12.6 237 11
2012-05-04 08:08:03 51°13.625 2°52.389 238.8 12.7 237 11
2012-05-04 08:08:08 51°13.616 2°52.365 239 12.6 238 11
2012-05-04 08:08:12 51°13.608 2°52.347 238.9 12.6 236 11
2012-05-04 08:08:18 51°13.596 2°52.318 238 12.7 238 11.1
2012-05-04 08:08:23 51°13.587 2°52.295 238.9 12.5 237 11.2
2012-05-04 08:08:28 51°13.577 2°52.272 237.4 12.7 235 11.4
2012-05-04 08:08:32 51°13.569 2°52.253 237.4 12.6 237 11.1
2012-05-04 08:08:38 51°13.557 2°52.226 237.4 12.6 233 11.3
2012-05-04 08:08:43 51°13.547 2°52.203 235.7 12.7 236 11.2
2012-05-04 08:08:48 51°13.536 2°52.181 236 12.6 233 11.1
2012-05-04 08:08:53 51°13.526 2°52.158 235 12.8 234 11.3
2012-05-04 08:08:58 51°13.516 2°52.136 235 12.6 234 11.3
2012-05-04 08:09:02 51°13.507 2°52.118 234.7 12.7 232 11.2
2012-05-04 08:09:08 51°13.495 2°52.091 233.7 12.7 235 11.3
2012-05-04 08:09:12 51°13.486 2°52.073 235 12.6 231 11.2
2012-05-04 08:09:18 51°13.474 2°52.046 233.8 12.8 235 11
2012-05-04 08:09:23 51°13.463 2°52.024 234.3 12.6 232 11.3
2012-05-04 08:09:28 51°13.452 2°52.002 234.2 12.6 232 11.4
2012-05-04 08:09:32 51°13.444 2°51.984 233.4 12.7 233 11.4
2012-05-04 08:09:38 51°13.431 2°51.957 233.8 12.7 233 11.2
2012-05-04 08:09:43 51°13.421 2°51.934 233.9 12.7 234 11.2
2012-05-04 08:09:48 51°13.41 2°51.912 234.5 12.6 233 11.3
2012-05-04 08:09:52 51°13.402 2°51.893 234.9 12.8 235 11.2
2012-05-04 08:09:58 51°13.39 2°51.865 235.7 12.7 237 11.2
2012-05-04 08:10:03 51°13.38 2°51.842 237.4 12.7 236 11.3
2012-05-04 08:10:08 51°13.371 2°51.818 237.4 12.8 238 11.3
2012-05-04 08:10:13 51°13.361 2°51.795 238.2 12.7 237 11.3
2012-05-04 08:10:18 51°13.352 2°51.771 238.3 12.7 237 11.4
2012-05-04 08:10:23 51°13.342 2°51.749 236.9 12.7 235 11.2
2012-05-04 08:10:28 51°13.331 2°51.726 235.7 12.7 235 11.1
2012-05-04 08:10:32 51°13.323 2°51.708 235.4 12.7 233 11.5
2012-05-04 08:10:38 51°13.311 2°51.68 235.4 12.6 234 11.1
2012-05-04 08:10:43 51°13.3 2°51.658 233.8 12.8 233 11.4
2012-05-04 08:10:48 51°13.291 2°51.635 235.8 12.5 237 11.3
2012-05-04 08:10:52 51°13.282 2°51.618 235.3 12.6 231 11.4
2012-05-04 08:10:58 51°13.27 2°51.589 234.4 12.8 237 11.3
2012-05-04 08:11:03 51°13.26 2°51.567 236 12.5 233 11.2
2012-05-04 08:11:08 51°13.249 2°51.545 234.9 12.7 234 11.1
2012-05-04 08:11:12 51°13.241 2°51.526 234.7 12.7 236 11.3
2012-05-04 08:11:18 51°13.23 2°51.498 236.7 12.5 236 11.2
2012-05-04 08:11:23 51°13.22 2°51.475 236.9 12.8 236 11.4
2012-05-04 08:11:28 51°13.211 2°51.451 238.6 12.7 239 11.4
2012-05-04 08:11:33 51°13.202 2°51.428 239.7 12.6 238 11.1
2012-05-04 08:11:38 51°13.193 2°51.403 239.7 12.7 240 11.4
2012-05-04 08:11:43 51°13.185 2°51.379 241.9 12.6 240 11.2
2012-05-04 08:11:48 51°13.175 2°51.355 241.5 12.7 239 11.2
2012-05-04 08:11:52 51°13.168 2°51.336 240.8 12.6 239 11.2
2012-05-04 08:11:58 51°13.157 2°51.308 240.3 12.6 237 11.4
2012-05-04 08:12:03 51°13.147 2°51.284 239.6 12.6 237 11.3
2012-05-04 08:12:08 51°13.137 2°51.261 238.3 12.7 236 11.3
2012-05-04 08:12:12 51°13.13 2°51.243 237.7 12.7 236 11.3
2012-05-04 08:12:18 51°13.118 2°51.215 237.2 12.7 236 11.4
2012-05-04 08:12:23 51°13.108 2°51.191 238.1 12.6 237 11.2
2012-05-04 08:12:28 51°13.099 2°51.168 238.4 12.8 238 11.4
2012-05-04 08:12:32 51°13.092 2°51.148 240.4 12.6 240 11.3
2012-05-04 08:12:38 51°13.081 2°51.12 240.9 12.7 237 11.5
2012-05-04 08:12:43 51°13.073 2°51.095 241 12.6 242 11.3
2012-05-04 08:12:48 51°13.064 2°51.072 242.5 12.6 239 11.4
2012-05-04 08:12:52 51°13.057 2°51.052 241.1 12.7 240 11.5
2012-05-04 08:12:58 51°13.046 2°51.023 241 12.6 240 11.3
2012-05-04 08:13:03 51°13.037 2°50.999 240.9 12.7 240 11.5
2012-05-04 08:13:08 51°13.029 2°50.975 241.1 12.7 240 11.3
2012-05-04 08:13:13 51°13.019 2°50.951 240.4 12.7 239 11.5
2012-05-04 08:13:18 51°13.01 2°50.927 239.7 12.6 237 11.5
2012-05-04 08:13:23 51°13 2°50.904 238 12.8 237 11.4
2012-05-04 08:13:28 51°12.99 2°50.88 237.6 12.7 236 11.6
2012-05-04 08:13:32 51°12.982 2°50.862 236.8 12.7 236 11.4
2012-05-04 08:13:38 51°12.97 2°50.834 235.9 12.8 235 11.6
2012-05-04 08:13:43 51°12.96 2°50.811 236.5 12.7 236 11.5
2012-05-04 08:13:48 51°12.951 2°50.787 236.9 12.8 237 11.3
2012-05-04 08:13:52 51°12.943 2°50.768 238.4 12.8 239 11.5
2012-05-04 08:13:58 51°12.933 2°50.739 240.3 12.7 240 11.4
2012-05-04 08:14:03 51°12.924 2°50.714 240.6 12.8 240 11.6
2012-05-04 08:14:08 51°12.916 2°50.689 242.2 12.8 243 11.4
2012-05-04 08:14:12 51°12.909 2°50.67 242.6 12.8 241 11.5
2012-05-04 08:14:18 51°12.9 2°50.639 243.2 12.8 244 11.4
2012-05-04 08:14:23 51°12.891 2°50.615 243.5 12.8 241 11.6
2012-05-04 08:14:28 51°12.883 2°50.589 243.8 12.7 242 11.4
2012-05-04 08:14:32 51°12.875 2°50.57 242.5 12.9 239 11.5
2012-05-04 08:14:38 51°12.866 2°50.54 242.6 12.7 242 11.4
2012-05-04 08:14:43 51°12.857 2°50.515 242.2 12.8 241 11.6
2012-05-04 08:14:48 51°12.849 2°50.49 243 12.7 242 11.5
2012-05-04 08:14:52 51°12.842 2°50.471 242.6 12.8 240 11.7
2012-05-04 08:14:57 51°12.834 2°50.445 242.6 12.8 243 11.5
2012-05-04 08:15:03 51°12.823 2°50.416 243.1 12.9 240 11.7
2012-05-04 08:15:08 51°12.816 2°50.39 243.1 12.8 244 11.5
2012-05-04 08:15:12 51°12.81 2°50.37 243.9 12.7 241 11.5
2012-05-04 08:15:18 51°12.8 2°50.34 243.2 12.9 244 11.4
2012-05-04 08:15:23 51°12.792 2°50.315 243.8 12.7 243 11.4
2012-05-04 08:15:28 51°12.783 2°50.29 243.9 12.8 242 11.7
2012-05-04 08:15:32 51°12.777 2°50.27 244 12.8 244 11.6
2012-05-04 08:15:38 51°12.767 2°50.241 244.1 12.7 241 11.5
2012-05-04 08:15:43 51°12.758 2°50.216 243.3 12.8 241 11.4
2012-05-04 08:15:48 51°12.75 2°50.191 242.3 12.8 243 11.5
2012-05-04 08:15:52 51°12.743 2°50.171 243.3 12.6 241 11.6
2012-05-04 08:15:58 51°12.732 2°50.142 240.6 12.9 240 11.7
2012-05-04 08:16:03 51°12.723 2°50.118 240.5 12.6 240 11.6
2012-05-04 08:16:08 51°12.713 2°50.095 239.4 12.8 237 11.6
2012-05-04 08:16:12 51°12.707 2°50.075 239.3 12.8 240 11.6
2012-05-04 08:16:18 51°12.695 2°50.047 239.7 12.7 238 11.4
2012-05-04 08:16:23 51°12.685 2°50.024 239.4 12.7 239 11.6
2012-05-04 08:16:28 51°12.675 2°50.001 239.2 12.7 238 11.7
2012-05-04 08:16:32 51°12.668 2°49.982 239.5 12.7 239 11.5
2012-05-04 08:16:38 51°12.656 2°49.953 239.4 12.6 237 11.5
2012-05-04 08:16:43 51°12.647 2°49.929 238.7 12.8 238 11.6
2012-05-04 08:16:48 51°12.638 2°49.905 239.2 12.8 239 11.5
2012-05-04 08:16:52 51°12.63 2°49.886 239.7 12.7 239 11.3
2012-05-04 08:16:58 51°12.62 2°49.857 239.6 12.8 239 11.6
2012-05-04 08:17:03 51°12.611 2°49.833 240.3 12.7 240 11.4
2012-05-04 08:17:08 51°12.602 2°49.809 240.3 12.8 238 11.6
2012-05-04 08:17:12 51°12.595 2°49.789 240.4 12.6 240 11.4
2012-05-04 08:17:18 51°12.584 2°49.76 240.1 12.8 239 11.6
2012-05-04 08:17:23 51°12.576 2°49.735 240.9 12.7 242 11.4
2012-05-04 08:17:28 51°12.566 2°49.712 240.6 12.8 237 11.7
2012-05-04 08:17:32 51°12.559 2°49.692 240.1 12.7 240 11.6
2012-05-04 08:17:38 51°12.548 2°49.664 239.4 12.7 235 11.5
2012-05-04 08:17:43 51°12.538 2°49.64 238 12.8 239 11.4
2012-05-04 08:17:48 51°12.528 2°49.618 237.4 12.6 233 11.6
2012-05-04 08:17:52 51°12.52 2°49.599 235.9 12.8 237 11.6
2012-05-04 08:17:58 51°12.508 2°49.571 236.5 12.6 234 11.6
2012-05-04 08:18:03 51°12.499 2°49.548 236.1 12.6 235 11.4
2012-05-04 08:18:08 51°12.488 2°49.525 235 12.7 235 11.5
2012-05-04 08:18:12 51°12.481 2°49.506 237.1 12.5 237 11.5
2012-05-04 08:18:18 51°12.47 2°49.478 237.6 12.7 238 11.5
2012-05-04 08:18:23 51°12.461 2°49.454 238.9 12.7 239 11.6
2012-05-04 08:18:28 51°12.452 2°49.43 240.3 12.6 240 11.3
2012-05-04 08:18:32 51°12.445 2°49.411 240.4 12.6 238 11.6
2012-05-04 08:18:38 51°12.434 2°49.382 239.4 12.7 238 11.6
2012-05-04 08:18:43 51°12.425 2°49.358 239.1 12.5 238 11.4
2012-05-04 08:18:48 51°12.415 2°49.335 239.1 12.6 238 11.4
2012-05-04 08:18:52 51°12.408 2°49.315 239.5 12.7 241 11.4
2012-05-04 08:18:58 51°12.398 2°49.286 241.1 12.5 239 11.5
2012-05-04 08:19:03 51°12.39 2°49.262 241.2 12.7 242 11.7
2012-05-04 08:19:08 51°12.382 2°49.237 242.4 12.6 242 11.5
2012-05-04 08:19:12 51°12.375 2°49.218 242.5 12.6 242 11.5
2012-05-04 08:19:18 51°12.365 2°49.188 243.1 12.6 242 11.6
2012-05-04 08:19:23 51°12.357 2°49.163 243.7 12.5 243 11.5
2012-05-04 08:19:28 51°12.349 2°49.139 243.9 12.5 242 11.5
2012-05-04 08:19:32 51°12.343 2°49.119 243.4 12.6 243 11.5
2012-05-04 08:19:38 51°12.333 2°49.09 244.2 12.4 243 11.5
2012-05-04 08:19:43 51°12.325 2°49.066 243.2 12.4 240 11.5
2012-05-04 08:19:48 51°12.316 2°49.043 241.2 12.5 239 11.5
2012-05-04 08:19:52 51°12.309 2°49.024 240.4 12.4 238 11.4
2012-05-04 08:19:58 51°12.298 2°48.996 239.6 12.5 239 11.4
2012-05-04 08:20:03 51°12.289 2°48.972 239.6 12.5 239 11.5
2012-05-04 08:20:08 51°12.28 2°48.949 240.2 12.4 239 11.5
2012-05-04 08:20:12 51°12.273 2°48.93 240.2 12.4 239 11.7
2012-05-04 08:20:18 51°12.262 2°48.902 240.7 12.5 239 11.5
2012-05-04 08:20:23 51°12.254 2°48.878 241.1 12.5 241 11.4
2012-05-04 08:20:28 51°12.245 2°48.854 241.8 12.4 239 11.5
2012-05-04 08:20:33 51°12.237 2°48.83 241.5 12.4 241 11.6
2012-05-04 08:20:38 51°12.228 2°48.806 242.3 12.5 240 11.5
2012-05-04 08:20:43 51°12.22 2°48.782 242.6 12.5 242 11.6
2012-05-04 08:20:48 51°12.212 2°48.758 243.7 12.3 241 11.7
2012-05-04 08:20:52 51°12.205 2°48.738 242.4 12.5 240 11.6
2012-05-04 08:20:58 51°12.196 2°48.709 243.1 12.4 242 11.6
2012-05-04 08:21:03 51°12.187 2°48.686 242.2 12.4 239 11.5
2012-05-04 08:21:08 51°12.178 2°48.662 241 12.5 240 11.5
2012-05-04 08:21:12 51°12.171 2°48.643 240.3 12.5 239 11.7
2012-05-04 08:21:18 51°12.16 2°48.615 240.2 12.5 237 11.8
2012-05-04 08:21:23 51°12.151 2°48.592 239.1 12.4 238 11.5
2012-05-04 08:21:28 51°12.141 2°48.569 238 12.6 236 11.6
2012-05-04 08:21:32 51°12.134 2°48.55 238.2 12.6 239 11.6
2012-05-04 08:21:38 51°12.122 2°48.523 239.2 12.4 236 11.5
2012-05-04 08:21:43 51°12.113 2°48.499 237.7 12.6 239 11.5
2012-05-04 08:21:48 51°12.105 2°48.475 239.5 12.4 239 11.5
2012-05-04 08:21:53 51°12.095 2°48.452 240.3 12.4 237 11.6
2012-05-04 08:21:57 51°12.088 2°48.433 238.4 12.5 238 11.5
2012-05-04 08:22:03 51°12.076 2°48.406 238.9 12.4 235 11.6
2012-05-04 08:22:08 51°12.067 2°48.383 237 12.4 237 11.3
2012-05-04 08:22:12 51°12.059 2°48.365 236.2 12.5 234 11.5
2012-05-04 08:22:18 51°12.047 2°48.338 236.2 12.5 236 11.4
2012-05-04 08:22:23 51°12.037 2°48.316 236.5 12.3 235 11.3
2012-05-04 08:22:28 51°12.027 2°48.293 235.6 12.5 235 11.5
2012-05-04 08:22:33 51°12.018 2°48.27 237 12.4 237 11.5
2012-05-04 08:22:38 51°12.008 2°48.248 236.8 12.3 235 11.2
2012-05-04 08:22:43 51°11.998 2°48.225 236.2 12.5 235 11.4
2012-05-04 08:22:48 51°11.989 2°48.201 237.5 12.5 239 11.4
2012-05-04 08:22:53 51°11.98 2°48.179 238.5 12.3 235 11.3
2012-05-04 08:22:58 51°11.971 2°48.155 237.6 12.5 239 11.3
2012-05-04 08:23:03 51°11.963 2°48.131 240.6 12.5 242 11.3
2012-05-04 08:23:08 51°11.955 2°48.107 242.8 12.3 241 11.3
2012-05-04 08:23:12 51°11.948 2°48.088 242.3 12.5 242 11.3
2012-05-04 08:23:18 51°11.939 2°48.058 244 12.4 244 11.3
2012-05-04 08:23:23 51°11.931 2°48.035 244.8 12.3 242 11.1
2012-05-04 08:23:28 51°11.923 2°48.01 243.7 12.6 242 11.5
2012-05-04 08:23:32 51°11.917 2°47.99 244.5 12.3 244 11.3
2012-05-04 08:23:38 51°11.907 2°47.961 244.2 12.4 243 11.2
2012-05-04 08:23:43 51°11.9 2°47.937 244.2 12.5 245 11.3
2012-05-04 08:23:48 51°11.893 2°47.912 246.1 12.4 246 11.3
2012-05-04 08:23:52 51°11.887 2°47.892 246.1 12.4 244 11.5
2012-05-04 08:23:58 51°11.879 2°47.861 247.8 12.4 248 11.3
2012-05-04 08:24:03 51°11.872 2°47.837 247.7 12.4 245 11.3
2012-05-04 08:24:08 51°11.865 2°47.811 247.8 12.4 247 11.4
2012-05-04 08:24:12 51°11.86 2°47.791 248.6 12.4 248 11.1
2012-05-04 08:24:18 51°11.852 2°47.761 248.4 12.4 246 11.3
2012-05-04 08:24:23 51°11.846 2°47.735 248.5 12.4 248 11.3
2012-05-04 08:24:28 51°11.839 2°47.71 248.9 12.4 247 11.2
2012-05-04 08:24:32 51°11.833 2°47.69 248.2 12.5 247 11.5
2012-05-04 08:24:38 51°11.826 2°47.66 248.7 12.4 247 11.5
2012-05-04 08:24:43 51°11.819 2°47.634 248.5 12.4 247 11.2
2012-05-04 08:24:48 51°11.812 2°47.609 248.4 12.4 247 11.4
2012-05-04 08:24:52 51°11.807 2°47.589 248.4 12.4 247 11.3
2012-05-04 08:24:58 51°11.797 2°47.56 246.4 12.4 243 11.3
2012-05-04 08:25:03 51°11.791 2°47.535 245.5 12.4 246 11.2
2012-05-04 08:25:08 51°11.783 2°47.511 245.3 12.4 243 11.3
2012-05-04 08:25:13 51°11.775 2°47.486 245 12.4 245 11.3
2012-05-04 08:25:18 51°11.768 2°47.461 245.1 12.4 245 11.1
2012-05-04 08:25:23 51°11.761 2°47.436 245.7 12.4 245 11.2
2012-05-04 08:25:28 51°11.754 2°47.412 246.1 12.4 246 11.3
2012-05-04 08:25:32 51°11.748 2°47.392 247 12.3 245 11.3
2012-05-04 08:25:38 51°11.74 2°47.362 246.3 12.5 246 11.3
2012-05-04 08:25:43 51°11.733 2°47.337 247.3 12.2 246 11.3
2012-05-04 08:25:48 51°11.725 2°47.313 246.7 12.4 244 11.5
2012-05-04 08:25:52 51°11.72 2°47.292 246.1 12.4 247 11.3
2012-05-04 08:25:58 51°11.711 2°47.263 246.5 12.3 244 11.3
2012-05-04 08:26:03 51°11.704 2°47.238 245.9 12.3 245 11.5
2012-05-04 08:26:08 51°11.697 2°47.214 246.2 12.3 244 11.2
2012-05-04 08:26:12 51°11.691 2°47.194 245.6 12.4 245 11.3
2012-05-04 08:26:17 51°11.684 2°47.17 245.6 12.2 243 11.1
2012-05-04 08:26:23 51°11.674 2°47.141 243.2 12.3 242 11.3
2012-05-04 08:26:28 51°11.666 2°47.117 243.3 12.2 243 11.2
2012-05-04 08:26:32 51°11.659 2°47.099 242 12.3 239 11.5
2012-05-04 08:26:38 51°11.65 2°47.07 242 12.2 243 11.2
2012-05-04 08:26:43 51°11.641 2°47.046 242.7 12.3 240 11.3
2012-05-04 08:26:48 51°11.634 2°47.022 243.1 12.1 244 11.2
2012-05-04 08:26:53 51°11.625 2°46.998 242.9 12.4 240 11.4
2012-05-04 08:26:58 51°11.619 2°46.974 242.5 12.2 245 11.2
2012-05-04 08:27:02 51°11.612 2°46.955 244.3 12.1 240 10.9
2012-05-04 08:27:08 51°11.602 2°46.927 241.8 12.4 243 11.2
2012-05-04 08:27:12 51°11.596 2°46.908 243.4 12 241 11.2
2012-05-04 08:27:18 51°11.586 2°46.88 241.8 12.1 239 11.3
2012-05-04 08:27:23 51°11.578 2°46.857 241.1 12.1 242 11.1
2012-05-04 08:27:28 51°11.569 2°46.834 241.1 12.1 238 11.2
2012-05-04 08:27:32 51°11.562 2°46.815 239.6 12.2 240 11.1
2012-05-04 08:27:38 51°11.552 2°46.788 240 11.9 239 10.9
2012-05-04 08:27:43 51°11.543 2°46.766 239.3 12.1 236 11.2
2012-05-04 08:27:48 51°11.535 2°46.742 238.7 12.1 242 11
2012-05-04 08:27:52 51°11.528 2°46.724 240.2 12 236 11.1
2012-05-04 08:27:58 51°11.518 2°46.697 239.5 12.1 241 11.1
2012-05-04 08:28:03 51°11.51 2°46.673 241.2 12.1 241 11.2
2012-05-04 08:28:08 51°11.503 2°46.65 243.1 12 243 11
2012-05-04 08:28:12 51°11.495 2°46.632 243.1 12.1 241 10.9
2012-05-04 08:28:18 51°11.486 2°46.604 242.5 12.1 242 10.9
2012-05-04 08:28:23 51°11.477 2°46.581 242.2 12 240 11
2012-05-04 08:28:28 51°11.469 2°46.557 241.8 12.1 241 11.1
2012-05-04 08:28:33 51°11.461 2°46.535 241.1 12.1 240 11.2
2012-05-04 08:28:38 51°11.452 2°46.512 241.1 12 240 11
2012-05-04 08:28:43 51°11.444 2°46.489 240.3 12.1 239 11.1
2012-05-04 08:28:48 51°11.436 2°46.466 241 12 240 11.2
2012-05-04 08:28:52 51°11.429 2°46.448 241 12 240 10.9
2012-05-04 08:28:58 51°11.419 2°46.42 240.5 12.1 238 11
2012-05-04 08:29:03 51°11.411 2°46.396 240.4 12 241 11
2012-05-04 08:29:08 51°11.403 2°46.374 241.1 11.9 239 10.9
2012-05-04 08:29:12 51°11.396 2°46.355 240.7 12.1 241 10.9
2012-05-04 08:29:18 51°11.387 2°46.327 241.9 12 241 10.8
2012-05-04 08:29:23 51°11.379 2°46.304 242 11.9 241 10.9
2012-05-04 08:29:28 51°11.371 2°46.281 241.8 12 240 10.8
2012-05-04 08:29:33 51°11.362 2°46.258 241.1 12.1 240 11
2012-05-04 08:29:38 51°11.354 2°46.235 241.3 11.9 241 10.8
2012-05-04 08:29:42 51°11.348 2°46.217 241.5 11.9 240 10.9
2012-05-04 08:29:48 51°11.338 2°46.189 241.1 12.1 242 10.6
2012-05-04 08:29:53 51°11.33 2°46.166 242.3 12 242 10.9
2012-05-04 08:29:58 51°11.323 2°46.142 243.2 12 241 10.9
2012-05-04 08:30:03 51°11.316 2°46.118 243.2 12.1 245 10.8
2012-05-04 08:30:08 51°11.308 2°46.095 244.7 11.9 244 11
2012-05-04 08:30:12 51°11.302 2°46.076 244.8 12 243 10.9
2012-05-04 08:30:18 51°11.293 2°46.047 244.3 12.1 245 11
2012-05-04 08:30:23 51°11.286 2°46.023 246.1 11.9 244 10.7
2012-05-04 08:30:28 51°11.279 2°45.999 245 12.1 244 10.9
2012-05-04 08:30:32 51°11.274 2°45.98 245.5 12.1 246 10.9
2012-05-04 08:30:38 51°11.265 2°45.951 246.6 12 245 10.9
2012-05-04 08:30:43 51°11.259 2°45.927 246.5 12 247 10.8
2012-05-04 08:30:48 51°11.252 2°45.902 247.7 12 246 10.9
2012-05-04 08:30:53 51°11.246 2°45.878 248.3 12 248 10.8
2012-05-04 08:30:58 51°11.239 2°45.854 248.4 12 245 11
2012-05-04 08:31:03 51°11.232 2°45.829 247.5 11.9 247 10.8
2012-05-04 08:31:08 51°11.225 2°45.805 246.9 11.9 245 10.8
2012-05-04 08:31:12 51°11.22 2°45.786 246.4 12 246 10.9
2012-05-04 08:31:18 51°11.211 2°45.757 246.2 11.9 245 11
2012-05-04 08:31:23 51°11.203 2°45.734 245.4 11.9 243 10.9
2012-05-04 08:31:28 51°11.196 2°45.71 244.2 12 244 10.8
2012-05-04 08:31:32 51°11.19 2°45.692 244.2 11.9 243 10.9
2012-05-04 08:31:38 51°11.181 2°45.663 244 12 244 10.8
2012-05-04 08:31:43 51°11.174 2°45.64 244 11.9 243 10.9
2012-05-04 08:31:48 51°11.166 2°45.617 244 11.9 242 11
2012-05-04 08:31:53 51°11.158 2°45.593 243 12 243 10.9
2012-05-04 08:31:58 51°11.151 2°45.57 243.7 11.9 242 10.9
2012-05-04 08:32:03 51°11.142 2°45.547 243.2 12 241 11
2012-05-04 08:32:08 51°11.135 2°45.523 243 11.9 243 10.9
2012-05-04 08:32:13 51°11.127 2°45.5 243.1 11.9 242 10.9
2012-05-04 08:32:18 51°11.121 2°45.476 244 11.9 246 10.8
2012-05-04 08:32:23 51°11.113 2°45.452 245.7 11.9 245 10.9
2012-05-04 08:32:28 51°11.106 2°45.429 245.6 11.9 245 10.9
2012-05-04 08:32:32 51°11.1 2°45.41 245.7 11.9 244 10.9
2012-05-04 08:32:38 51°11.092 2°45.381 244.9 12 244 11.2
2012-05-04 08:32:43 51°11.085 2°45.357 246 11.8 245 10.7
2012-05-04 08:32:48 51°11.077 2°45.334 244.2 11.9 242 11
2012-05-04 08:32:52 51°11.071 2°45.315 243.8 11.9 244 10.9
2012-05-04 08:32:58 51°11.062 2°45.288 244.1 11.8 242 10.8
2012-05-04 08:33:03 51°11.054 2°45.264 242.4 12.1 241 10.9
2012-05-04 08:33:08 51°11.048 2°45.24 244.3 11.9 247 10.8
2012-05-04 08:33:12 51°11.041 2°45.222 245.2 11.8 242 10.8
2012-05-04 08:33:18 51°11.033 2°45.193 244.3 12 244 11.1
2012-05-04 08:33:23 51°11.027 2°45.168 246.8 11.9 248 11.1
2012-05-04 08:33:28 51°11.019 2°45.145 246.9 11.9 243 11
2012-05-04 08:33:33 51°11.013 2°45.121 245.6 11.8 247 11
2012-05-04 08:33:38 51°11.006 2°45.097 247.2 11.9 246 10.9
2012-05-04 08:33:43 51°11 2°45.073 246.9 12 247 10.9
2012-05-04 08:33:48 51°10.993 2°45.049 247.9 11.8 246 11
2012-05-04 08:33:52 51°10.987 2°45.03 246.5 11.9 244 11
2012-05-04 08:33:58 51°10.979 2°45.002 245.4 11.9 244 11.1
2012-05-04 08:34:03 51°10.971 2°44.978 245.4 11.8 244 10.9
2012-05-04 08:34:08 51°10.964 2°44.955 244.4 11.8 242 11
2012-05-04 08:34:12 51°10.958 2°44.937 243.1 11.9 243 10.9
2012-05-04 08:34:18 51°10.948 2°44.909 243.1 12 240 11.1
2012-05-04 08:34:23 51°10.941 2°44.886 242.7 11.8 244 10.8
2012-05-04 08:34:28 51°10.933 2°44.862 244 11.8 243 10.8
2012-05-04 08:34:32 51°10.928 2°44.843 244.7 11.9 246 10.9
2012-05-04 08:34:38 51°10.92 2°44.814 247.4 11.8 247 11
2012-05-04 08:34:43 51°10.913 2°44.79 247 11.8 245 10.7
2012-05-04 08:34:48 51°10.906 2°44.767 245.4 11.8 246 11
2012-05-04 08:34:52 51°10.901 2°44.747 247.6 11.8 247 11.2
2012-05-04 08:34:58 51°10.894 2°44.718 247.1 11.9 247 10.8
2012-05-04 08:35:03 51°10.887 2°44.695 247.6 11.8 247 10.7
2012-05-04 08:35:08 51°10.881 2°44.671 248.3 11.9 246 11
2012-05-04 08:35:12 51°10.876 2°44.651 248.2 11.9 250 10.9
2012-05-04 08:35:17 51°10.87 2°44.626 249.8 11.8 249 10.9
2012-05-04 08:35:23 51°10.863 2°44.597 250 11.8 249 10.7
2012-05-04 08:35:28 51°10.858 2°44.573 250.2 11.8 251 10.7
2012-05-04 08:35:32 51°10.853 2°44.553 250.7 11.8 249 10.9
2012-05-04 08:35:38 51°10.846 2°44.524 250 11.8 249 11.1
2012-05-04 08:35:43 51°10.841 2°44.5 250.7 11.7 249 11
2012-05-04 08:35:48 51°10.835 2°44.476 250.6 11.7 249 10.9
2012-05-04 08:35:52 51°10.83 2°44.456 250.3 11.8 248 11.1
2012-05-04 08:35:58 51°10.824 2°44.427 251 11.7 251 10.9
2012-05-04 08:36:03 51°10.817 2°44.403 249.9 11.8 247 11.2
2012-05-04 08:36:08 51°10.812 2°44.379 249.7 11.8 250 10.9
2012-05-04 08:36:13 51°10.805 2°44.355 249.8 11.7 248 11
2012-05-04 08:36:18 51°10.8 2°44.331 250.4 11.7 249 11
2012-05-04 08:36:23 51°10.793 2°44.307 249.4 11.8 247 10.7
2012-05-04 08:36:28 51°10.788 2°44.282 249.4 11.7 251 11
2012-05-04 08:36:33 51°10.781 2°44.259 249.8 11.7 244 11.1
2012-05-04 08:36:38 51°10.775 2°44.235 247.8 11.8 248 10.9
2012-05-04 08:36:43 51°10.768 2°44.211 248.2 11.8 246 10.9
2012-05-04 08:36:48 51°10.762 2°44.187 248.2 11.7 247 10.9
2012-05-04 08:36:53 51°10.755 2°44.164 247.1 11.8 246 10.7
2012-05-04 08:36:58 51°10.749 2°44.14 247 11.7 246 11
2012-05-04 08:37:03 51°10.741 2°44.117 247.1 11.7 244 11
2012-05-04 08:37:08 51°10.734 2°44.094 245.6 11.7 244 10.8
2012-05-04 08:37:12 51°10.728 2°44.075 244.9 11.8 240 11.1
2012-05-04 08:37:18 51°10.719 2°44.048 243.2 11.6 243 10.9
2012-05-04 08:37:23 51°10.711 2°44.026 242.7 11.7 239 11
2012-05-04 08:37:28 51°10.704 2°44.003 242.5 11.7 245 10.8
2012-05-04 08:37:32 51°10.698 2°43.984 244.7 11.7 242 10.9
2012-05-04 08:37:37 51°10.69 2°43.962 243.7 11.6 243 11
2012-05-04 08:37:43 51°10.681 2°43.935 243.2 11.7 239 11
2012-05-04 08:37:48 51°10.673 2°43.913 241.8 11.7 242 10.8
2012-05-04 08:37:52 51°10.667 2°43.894 242.7 11.6 240 11
2012-05-04 08:37:58 51°10.657 2°43.868 241.6 11.6 241 10.9
2012-05-04 08:38:03 51°10.65 2°43.845 242 11.6 241 10.9
2012-05-04 08:38:08 51°10.641 2°43.823 241.8 11.7 240 10.9
2012-05-04 08:38:12 51°10.635 2°43.805 241.8 11.6 242 10.7
2012-05-04 08:38:18 51°10.626 2°43.778 242.9 11.5 242 10.9
2012-05-04 08:38:23 51°10.618 2°43.755 242.5 11.7 241 10.9
2012-05-04 08:38:28 51°10.611 2°43.732 243.2 11.7 244 10.7
2012-05-04 08:38:33 51°10.603 2°43.71 243.8 11.6 242 11
2012-05-04 08:38:38 51°10.597 2°43.686 244.3 11.5 245 10.8
2012-05-04 08:38:43 51°10.589 2°43.664 244.7 11.5 242 10.8
2012-05-04 08:38:48 51°10.582 2°43.641 244 11.6 243 10.8
2012-05-04 08:38:52 51°10.577 2°43.623 244.6 11.6 245 10.6
2012-05-04 08:38:58 51°10.568 2°43.596 244.7 11.6 244 10.7
2012-05-04 08:39:03 51°10.562 2°43.572 246.7 11.5 247 11
2012-05-04 08:39:08 51°10.556 2°43.548 247.9 11.6 248 11.1
2012-05-04 08:39:12 51°10.552 2°43.529 249.9 11.5 250 10.8
2012-05-04 08:39:18 51°10.545 2°43.5 250.5 11.6 249 10.8
2012-05-04 08:39:23 51°10.54 2°43.476 251.3 11.5 252 10.7
2012-05-04 08:39:28 51°10.534 2°43.452 251.9 11.5 250 10.9
2012-05-04 08:39:32 51°10.531 2°43.433 251.8 11.5 252 10.9
2012-05-04 08:39:38 51°10.525 2°43.404 252.5 11.4 252 10.8
2012-05-04 08:39:43 51°10.52 2°43.38 253.3 11.3 252 11
2012-05-04 08:39:48 51°10.515 2°43.356 253.7 11.4 253 11
2012-05-04 08:39:52 51°10.512 2°43.337 253.7 11.4 252 11
2012-05-04 08:39:58 51°10.507 2°43.308 254 11.3 254 10.9
2012-05-04 08:40:03 51°10.502 2°43.284 254.1 11.3 252 11
2012-05-04 08:40:08 51°10.497 2°43.26 253.9 11.4 254 11
2012-05-04 08:40:12 51°10.494 2°43.241 254.3 11.4 254 10.9
2012-05-04 08:40:18 51°10.488 2°43.212 254.3 11.3 254 10.9
2012-05-04 08:40:23 51°10.483 2°43.188 254.6 11.4 253 11.2
2012-05-04 08:40:28 51°10.479 2°43.164 254.8 11.3 254 11.1
2012-05-04 08:40:33 51°10.474 2°43.14 254.4 11.4 252 10.9
2012-05-04 08:40:38 51°10.469 2°43.116 253.4 11.4 253 11
2012-05-04 08:40:43 51°10.464 2°43.093 253.4 11.3 251 11
2012-05-04 08:40:48 51°10.459 2°43.07 251.8 11.4 250 10.9
2012-05-04 08:40:52 51°10.455 2°43.051 251.6 11.4 249 11.2
2012-05-04 08:40:58 51°10.448 2°43.023 251.7 11.3 250 11.1
2012-05-04 08:41:03 51°10.443 2°42.999 250.5 11.3 249 11.1
2012-05-04 08:41:08 51°10.437 2°42.976 250.4 11.4 250 11.1
2012-05-04 08:41:12 51°10.433 2°42.957 250.7 11.4 249 11.1
2012-05-04 08:41:18 51°10.426 2°42.929 250.9 11.3 250 11.2
2012-05-04 08:41:23 51°10.42 2°42.906 250.3 11.4 248 11.1
2012-05-04 08:41:28 51°10.415 2°42.882 250.3 11.5 251 11.1
2012-05-04 08:41:32 51°10.41 2°42.863 251.1 11.4 250 11.3
2012-05-04 08:41:38 51°10.404 2°42.835 251.3 11.3 250 11
2012-05-04 08:41:43 51°10.398 2°42.811 250.9 11.5 248 11.1
2012-05-04 08:41:48 51°10.393 2°42.787 250.8 11.4 251 11.1
2012-05-04 08:41:52 51°10.389 2°42.768 251.7 11.3 250 11.1
2012-05-04 08:41:58 51°10.383 2°42.74 251.9 11.3 252 11.1
2012-05-04 08:42:03 51°10.379 2°42.716 254 11.5 254 11.1
2012-05-04 08:42:08 51°10.374 2°42.692 254.8 11.3 255 11.2
2012-05-04 08:42:12 51°10.371 2°42.672 256.1 11.3 254 11.1
2012-05-04 08:42:18 51°10.365 2°42.643 254.8 11.5 252 11.3
2012-05-04 08:42:23 51°10.362 2°42.619 257 11.4 259 11.1
2012-05-04 08:42:28 51°10.357 2°42.595 257 11.3 252 11.2
2012-05-04 08:42:33 51°10.354 2°42.571 255.9 11.4 257 11.1
2012-05-04 08:42:38 51°10.35 2°42.547 257.6 11.3 255 11.1
2012-05-04 08:42:43 51°10.345 2°42.523 256.6 11.2 251 11.2
2012-05-04 08:42:48 51°10.339 2°42.5 252.1 11.3 247 11.2
2012-05-04 08:42:53 51°10.332 2°42.477 250.1 11.3 248 11.2
2012-05-04 08:42:58 51°10.326 2°42.455 249 11.2 246 11.2
2012-05-04 08:43:03 51°10.319 2°42.433 246.7 11.2 241 11.1
2012-05-04 08:43:08 51°10.311 2°42.411 244.1 11.3 241 11.2
2012-05-04 08:43:12 51°10.305 2°42.394 242.6 11.3 239 11.2
2012-05-04 08:43:18 51°10.295 2°42.369 241.7 11.3 240 11
2012-05-04 08:43:23 51°10.286 2°42.348 240.8 11.5 237 11.3
2012-05-04 08:43:28 51°10.279 2°42.326 241.8 11.2 240 11.2
2012-05-04 08:43:32 51°10.271 2°42.31 239.7 11.4 234 11.3
2012-05-04 08:43:38 51°10.262 2°42.284 239.5 11.4 240 11.2
2012-05-04 08:43:43 51°10.253 2°42.263 241.1 11.2 238 11
2012-05-04 08:43:48 51°10.244 2°42.243 239.7 11.4 234 11.3
2012-05-04 08:43:52 51°10.237 2°42.226 238.2 11.3 238 11.2
2012-05-04 08:43:58 51°10.226 2°42.202 238.4 11.3 233 11.1
2012-05-04 08:44:03 51°10.217 2°42.181 237.2 11.4 236 11.2
2012-05-04 08:44:08 51°10.208 2°42.161 238.5 11.4 234 11.1
2012-05-04 08:44:12 51°10.201 2°42.144 238.1 11.3 235 11
2012-05-04 08:44:18 51°10.19 2°42.121 236.6 11.2 230 11.2
2012-05-04 08:44:23 51°10.181 2°42.1 235.7 11.4 235 11.1
2012-05-04 08:44:28 51°10.171 2°42.081 235.4 11.3 231 11.1
2012-05-04 08:44:32 51°10.163 2°42.065 234.3 11.3 232 11
2012-05-04 08:44:38 51°10.151 2°42.042 234.2 11.3 231 11
2012-05-04 08:44:43 51°10.141 2°42.023 234.2 11.2 231 11.1
2012-05-04 08:44:48 51°10.131 2°42.003 233.8 11.2 230 11
2012-05-04 08:44:52 51°10.123 2°41.988 233.5 11.4 230 11.1
2012-05-04 08:44:58 51°10.112 2°41.964 233.9 11.3 233 11
2012-05-04 08:45:03 51°10.102 2°41.946 235 11.3 229 11
2012-05-04 08:45:08 51°10.093 2°41.926 234.4 11.2 234 10.9
2012-05-04 08:45:13 51°10.083 2°41.907 234.9 11.2 230 11
2012-05-04 08:45:18 51°10.073 2°41.886 233.8 11.4 234 11.2
2012-05-04 08:45:23 51°10.065 2°41.866 236.2 11.1 233 10.9
2012-05-04 08:45:28 51°10.055 2°41.847 236 11.3 232 11.1
2012-05-04 08:45:33 51°10.046 2°41.827 236 11.2 234 11.1
2012-05-04 08:45:38 51°10.037 2°41.807 237 11.3 234 10.9
2012-05-04 08:45:43 51°10.029 2°41.785 237.7 11.3 238 10.9
2012-05-04 08:45:48 51°10.02 2°41.765 240.1 11.2 237 11.2
2012-05-04 08:45:52 51°10.014 2°41.748 240.8 11.1 239 11
2012-05-04 08:45:58 51°10.005 2°41.722 241.4 11.3 239 10.9
2012-05-04 08:46:03 51°9.997 2°41.7 242.7 11.2 241 11.1
2012-05-04 08:46:08 51°9.989 2°41.679 243.2 11.2 239 11.1
2012-05-04 08:46:12 51°9.983 2°41.662 242.2 11.2 240 10.9
2012-05-04 08:46:18 51°9.974 2°41.636 243.2 11.2 241 11
2012-05-04 08:46:23 51°9.966 2°41.615 243 11.2 239 11.1
2012-05-04 08:46:28 51°9.959 2°41.593 242.3 11.2 242 10.9
2012-05-04 08:46:33 51°9.951 2°41.572 242.6 11.1 239 10.9
2012-05-04 08:46:38 51°9.943 2°41.551 242.1 11.1 238 11
2012-05-04 08:46:43 51°9.934 2°41.531 240.1 11.3 236 11
2012-05-04 08:46:48 51°9.925 2°41.51 239.3 11.1 236 10.9
2012-05-04 08:46:52 51°9.918 2°41.494 238.2 11.1 233 10.9
2012-05-04 08:46:58 51°9.907 2°41.47 236 11.3 235 11
2012-05-04 08:47:03 51°9.899 2°41.45 237.1 11.2 237 11
2012-05-04 08:47:08 51°9.89 2°41.429 238.4 11.1 236 11
2012-05-04 08:47:12 51°9.885 2°41.413 241.1 10.4 241 11
2012-05-04 08:47:18 51°9.876 2°41.392 241.7 9.5 237 11.1
2012-05-04 08:47:23 51°9.871 2°41.375 242.5 8.6 244 11
2012-05-04 08:47:28 51°9.866 2°41.36 245.7 7.8 243 11.2
2012-05-04 08:47:32 51°9.863 2°41.348 249 7 249 11.3
2012-05-04 08:47:38 51°9.86 2°41.332 251.4 6.5 249 11.3
2012-05-04 08:47:43 51°9.858 2°41.319 254 5.9 255 11
2012-05-04 08:47:48 51°9.856 2°41.308 256.3 5.5 255 11.1
2012-05-04 08:47:52 51°9.854 2°41.299 258.8 5.1 258 11.2
2012-05-04 08:47:58 51°9.853 2°41.286 259.9 4.8 259 11
2012-05-04 08:48:03 51°9.852 2°41.277 261.6 4.4 260 11.2
2012-05-04 08:48:08 51°9.851 2°41.268 262.8 4.2 262 11.3
2012-05-04 08:48:12 51°9.851 2°41.261 263.9 3.9 265 11.1
2012-05-04 08:48:18 51°9.85 2°41.251 264.9 3.7 266 10.9
2012-05-04 08:48:23 51°9.849 2°41.243 265.8 3.5 264 11.3
2012-05-04 08:48:28 51°9.849 2°41.236 266.3 3.3 266 11.4
2012-05-04 08:48:33 51°9.849 2°41.229 267.2 3.2 266 11.3
2012-05-04 08:48:37 51°9.849 2°41.224 267.8 3.1 267 11.2
2012-05-04 08:48:43 51°9.849 2°41.216 268.2 3 267 11.3
2012-05-04 08:48:48 51°9.849 2°41.21 268 2.9 267 11.3
2012-05-04 08:48:52 51°9.848 2°41.205 267.4 2.8 266 11.4
2012-05-04 08:48:58 51°9.848 2°41.197 266.5 2.7 265 11.4
2012-05-04 08:49:03 51°9.848 2°41.192 265.6 2.6 266 11.1
2012-05-04 08:49:08 51°9.847 2°41.186 264.1 2.6 263 11.2
2012-05-04 08:49:12 51°9.847 2°41.182 262.8 2.5 258 11.4
2012-05-04 08:49:18 51°9.846 2°41.175 261.6 2.5 260 11.2
2012-05-04 08:49:23 51°9.845 2°41.17 260.3 2.4 255 11.4
2012-05-04 08:49:28 51°9.844 2°41.165 259.4 2.4 258 11.5
2012-05-04 08:49:32 51°9.844 2°41.161 258.5 2.3 255 11.3
2012-05-04 08:49:38 51°9.843 2°41.155 257.4 2.3 255 11.2
2012-05-04 08:49:43 51°9.842 2°41.151 256.4 2.3 251 11.4
2012-05-04 08:49:48 51°9.841 2°41.146 255.9 2.2 253 11.4
2012-05-04 08:49:52 51°9.84 2°41.142 255.2 2.1 248 11.3
2012-05-04 08:49:58 51°9.839 2°41.138 254.7 2 250 11.2
2012-05-04 08:50:03 51°9.838 2°41.134 254.1 2 244 11.3
2012-05-04 08:50:08 51°9.837 2°41.13 253.6 1.9 252 11.2
2012-05-04 08:50:12 51°9.836 2°41.127 253.1 1.9 247 11.2
2012-05-04 08:50:18 51°9.835 2°41.123 252.9 1.8 246 11.3
2012-05-04 08:50:23 51°9.832 2°41.121 252.7 1.7 243 11.2
2012-05-04 08:50:28 51°9.831 2°41.118 252.3 1.7 242 11.4
2012-05-04 08:50:32 51°9.83 2°41.115 252 1.6 248 11.2
2012-05-04 08:50:38 51°9.829 2°41.111 252 1.6 240 11.2
2012-05-04 08:50:43 51°9.828 2°41.108 251.9 1.5 247 11.3
2012-05-04 08:50:48 51°9.827 2°41.106 252 1.5 233 11.6
2012-05-04 08:50:53 51°9.826 2°41.103 252.1 1.4 244 11.5
2012-05-04 08:50:58 51°9.825 2°41.1 251.9 1.4 242 11.5
2012-05-04 08:51:03 51°9.824 2°41.097 252.4 1.4 246 11.5
2012-05-04 08:51:08 51°9.823 2°41.095 252.6 1.4 243 11.3
2012-05-04 08:51:12 51°9.822 2°41.093 252.7 1.3 245 11.3
2012-05-04 08:51:18 51°9.822 2°41.09 252.8 1.2 240 11.3
2012-05-04 08:51:23 51°9.821 2°41.088 253 1.2 246 11.3
2012-05-04 08:51:28 51°9.82 2°41.085 253 1.2 244 11.3
2012-05-04 08:51:32 51°9.819 2°41.084 253.4 1.2 235 11.6
2012-05-04 08:51:38 51°9.819 2°41.081 253.5 1.1 245 11.4
2012-05-04 08:51:43 51°9.818 2°41.079 253.8 1.1 241 11.3
2012-05-04 08:51:48 51°9.817 2°41.077 254 1 248 11.2
2012-05-04 08:51:52 51°9.816 2°41.076 254.4 1 237 11.4
2012-05-04 08:51:58 51°9.816 2°41.073 254.8 1 241 11.5
2012-05-04 08:52:03 51°9.815 2°41.072 254.8 0.9 243 11.2
2012-05-04 08:52:08 51°9.815 2°41.07 255.3 0.9 248 11.4
2012-05-04 08:52:13 51°9.814 2°41.068 255.6 0.9 241 11.4
2012-05-04 08:52:18 51°9.813 2°41.066 255.7 0.9 239 11.4
2012-05-04 08:52:23 51°9.814 2°41.064 255.7 0.9 254 11.4
2012-05-04 08:52:28 51°9.814 2°41.062 256.2 0.8 243 11.4
2012-05-04 08:52:33 51°9.813 2°41.06 256.2 0.8 247 11.6
2012-05-04 08:52:38 51°9.813 2°41.059 256.6 0.8 232 11.6
2012-05-04 08:52:43 51°9.813 2°41.057 256.6 0.9 256 11.4
2012-05-04 08:52:48 51°9.812 2°41.055 257 1.1 241 11.5
2012-05-04 08:52:52 51°9.812 2°41.052 256.9 1.3 256 11.4
2012-05-04 08:52:58 51°9.811 2°41.049 257.2 1.5 247 11.5
2012-05-04 08:53:03 51°9.81 2°41.045 257.4 1.7 250 11.7
2012-05-04 08:53:08 51°9.809 2°41.042 257.7 1.8 250 11.4
2012-05-04 08:53:12 51°9.808 2°41.038 257.7 2.1 255 11.3
2012-05-04 08:53:18 51°9.807 2°41.032 258.1 2.4 253 11.6
2012-05-04 08:53:23 51°9.806 2°41.027 258.2 2.6 255 11.6
2012-05-04 08:53:28 51°9.805 2°41.021 258.5 2.8 257 11.3
2012-05-04 08:53:32 51°9.805 2°41.016 258.5 3 254 11.6
2012-05-04 08:53:38 51°9.804 2°41.008 258.5 3.1 257 11.5
2012-05-04 08:53:43 51°9.802 2°41.001 258.9 3.3 253 11.6
2012-05-04 08:53:48 51°9.801 2°40.993 259.1 3.4 258 11.5
2012-05-04 08:53:53 51°9.8 2°40.986 259.5 3.6 258 11.5
2012-05-04 08:53:58 51°9.8 2°40.978 260.2 3.6 262 11.3
2012-05-04 08:54:03 51°9.799 2°40.97 261.7 3.7 259 11.4
2012-05-04 08:54:08 51°9.798 2°40.961 262.7 3.8 263 11.5
2012-05-04 08:54:13 51°9.798 2°40.953 263.5 3.8 264 11.4
2012-05-04 08:54:18 51°9.797 2°40.944 264.3 4 265 11.4
2012-05-04 08:54:23 51°9.797 2°40.935 264.9 4 265 11.4
2012-05-04 08:54:28 51°9.796 2°40.927 265.8 4 266 11.3
2012-05-04 08:54:33 51°9.796 2°40.918 266.1 4.1 267 11.4
2012-05-04 08:54:38 51°9.796 2°40.909 266.6 4.1 267 11.5
2012-05-04 08:54:43 51°9.796 2°40.899 267.2 4.2 268 11.7
2012-05-04 08:54:48 51°9.796 2°40.89 268.1 4.2 270 11.6
2012-05-04 08:54:52 51°9.796 2°40.883 268.4 4.1 271 11.4
2012-05-04 08:54:58 51°9.796 2°40.872 268.7 4.1 270 11.6
2012-05-04 08:55:03 51°9.796 2°40.863 269.4 4.1 270 11.7
2012-05-04 08:55:08 51°9.796 2°40.854 269.9 4.1 271 11.9
2012-05-04 08:55:12 51°9.796 2°40.847 270.5 4.1 275 11.6
2012-05-04 08:55:18 51°9.797 2°40.836 271.1 4 273 11.6
2012-05-04 08:55:23 51°9.797 2°40.827 271.5 4 275 11.5
2012-05-04 08:55:28 51°9.798 2°40.819 271.8 3.9 274 11.5
2012-05-04 08:55:32 51°9.798 2°40.812 272.1 3.9 276 11.6
2012-05-04 08:55:38 51°9.798 2°40.802 273 3.8 273 11.8
2012-05-04 08:55:43 51°9.799 2°40.794 273.2 3.8 276 11.8
2012-05-04 08:55:48 51°9.8 2°40.786 273.6 3.7 276 11.8
2012-05-04 08:55:52 51°9.8 2°40.78 274.1 3.6 278 11.6
2012-05-04 08:55:58 51°9.801 2°40.77 274.6 3.7 277 11.7
2012-05-04 08:56:03 51°9.802 2°40.762 274.8 3.7 280 11.8
2012-05-04 08:56:08 51°9.803 2°40.754 275.2 3.6 278 11.8
2012-05-04 08:56:12 51°9.804 2°40.748 275.7 3.6 282 11.6
2012-05-04 08:56:18 51°9.804 2°40.738 275.7 3.6 278 11.6
2012-05-04 08:56:23 51°9.805 2°40.731 275.9 3.5 281 11.7
2012-05-04 08:56:28 51°9.806 2°40.723 276.5 3.5 280 11.8
2012-05-04 08:56:32 51°9.807 2°40.717 276.9 3.5 283 11.8
2012-05-04 08:56:38 51°9.808 2°40.708 277.2 3.5 281 11.9
2012-05-04 08:56:43 51°9.81 2°40.701 277.4 3.5 285 11.7
2012-05-04 08:56:48 51°9.81 2°40.693 277.6 3.5 282 11.7
2012-05-04 08:56:53 51°9.812 2°40.686 277.9 3.4 282 11.9
2012-05-04 08:56:58 51°9.812 2°40.678 277.4 3.4 281 11.9
2012-05-04 08:57:03 51°9.813 2°40.671 276.5 3.4 279 12.1
2012-05-04 08:57:08 51°9.814 2°40.664 275.4 3.4 277 12.2
2012-05-04 08:57:12 51°9.814 2°40.658 273.7 3.3 278 11.9
2012-05-04 08:57:18 51°9.815 2°40.649 271.9 3.3 271 12.1
2012-05-04 08:57:23 51°9.815 2°40.641 270.1 3.3 274 11.9
2012-05-04 08:57:28 51°9.815 2°40.634 268.4 3.3 270 11.9
2012-05-04 08:57:32 51°9.815 2°40.629 266.5 3.2 267 12.2
2012-05-04 08:57:38 51°9.814 2°40.62 265 3.2 262 12.4
2012-05-04 08:57:43 51°9.813 2°40.613 262.9 3.2 264 12.1
2012-05-04 08:57:48 51°9.813 2°40.606 260.9 3.2 259 12.1
2012-05-04 08:57:52 51°9.812 2°40.6 259 3.3 258 12.1
2012-05-04 08:57:58 51°9.81 2°40.592 257.1 3.2 255 12
2012-05-04 08:58:03 51°9.809 2°40.586 255.1 3.2 251 12.2
2012-05-04 08:58:08 51°9.807 2°40.579 253.7 3.2 247 12.3
2012-05-04 08:58:13 51°9.806 2°40.572 251.6 3.2 250 12.1
2012-05-04 08:58:18 51°9.803 2°40.566 249.8 3.3 243 12.1
2012-05-04 08:58:23 51°9.801 2°40.56 248.8 3.3 245 12.2
2012-05-04 08:58:28 51°9.8 2°40.553 248.2 3.3 243 12.1
2012-05-04 08:58:32 51°9.798 2°40.548 248 3.3 243 12.1
2012-05-04 08:58:38 51°9.796 2°40.54 248 3.3 243 11.9
2012-05-04 08:58:43 51°9.794 2°40.534 248 3.3 245 11.9
2012-05-04 08:58:48 51°9.791 2°40.527 248.2 3.3 242 12.1
2012-05-04 08:58:53 51°9.79 2°40.521 248.3 3.3 246 11.8
2012-05-04 08:58:58 51°9.787 2°40.514 248.2 3.4 241 12
2012-05-04 08:59:03 51°9.785 2°40.508 248.4 3.3 245 12
2012-05-04 08:59:08 51°9.783 2°40.501 248.5 3.4 243 12.2
2012-05-04 08:59:13 51°9.781 2°40.494 248.8 3.4 245 12.2
2012-05-04 08:59:18 51°9.779 2°40.487 248.7 3.4 244 12.1
2012-05-04 08:59:23 51°9.777 2°40.481 249 3.4 244 12
2012-05-04 08:59:28 51°9.775 2°40.474 249.2 3.5 244 12.1
2012-05-04 08:59:32 51°9.773 2°40.468 249.3 3.5 244 12.3
2012-05-04 08:59:38 51°9.771 2°40.46 249.6 3.5 246 12
2012-05-04 08:59:43 51°9.769 2°40.453 249.9 3.5 244 12.3
2012-05-04 08:59:48 51°9.767 2°40.446 249.9 3.5 246 12.2
2012-05-04 08:59:52 51°9.765 2°40.44 250 3.5 244 12.1
2012-05-04 08:59:58 51°9.763 2°40.431 250.2 3.5 246 12.2
2012-05-04 09:00:03 51°9.761 2°40.424 250.4 3.5 244 12.2
2012-05-04 09:00:08 51°9.76 2°40.417 250.6 3.5 249 12.1
2012-05-04 09:00:13 51°9.757 2°40.41 250.8 3.5 244 12.2
2012-05-04 09:00:18 51°9.756 2°40.403 251.2 3.5 249 12
2012-05-04 09:00:23 51°9.754 2°40.396 251.2 3.5 248 12.1
2012-05-04 09:00:28 51°9.752 2°40.389 251.7 3.5 248 12.2
2012-05-04 09:00:32 51°9.751 2°40.383 252.1 3.5 249 12.1
2012-05-04 09:00:38 51°9.749 2°40.374 252 3.5 249 12.1
2012-05-04 09:00:43 51°9.747 2°40.367 252.7 3.5 247 12.3
2012-05-04 09:00:48 51°9.745 2°40.36 253.1 3.5 251 12.2
2012-05-04 09:00:52 51°9.744 2°40.354 253.3 3.5 251 12.2
2012-05-04 09:00:58 51°9.742 2°40.345 253.2 3.5 248 12.3
2012-05-04 09:01:03 51°9.741 2°40.338 253.3 3.5 253 12.1
2012-05-04 09:01:08 51°9.739 2°40.331 252.7 3.5 248 12.2
2012-05-04 09:01:12 51°9.737 2°40.325 251.6 3.5 249 12.1
2012-05-04 09:01:18 51°9.735 2°40.317 250.7 3.5 246 12.2
2012-05-04 09:01:23 51°9.733 2°40.31 249.8 3.5 246 12.1
2012-05-04 09:01:28 51°9.731 2°40.303 249.4 3.5 244 12.1
2012-05-04 09:01:32 51°9.729 2°40.297 248.4 3.5 244 12.2
2012-05-04 09:01:38 51°9.727 2°40.289 248.2 3.5 244 12.3
2012-05-04 09:01:43 51°9.724 2°40.282 247.6 3.5 243 12.2
2012-05-04 09:01:48 51°9.722 2°40.275 247.5 3.5 242 12.4
2012-05-04 09:01:52 51°9.72 2°40.269 247.1 3.5 242 12.3
2012-05-04 09:01:58 51°9.717 2°40.261 246.4 3.6 241 12.3
2012-05-04 09:02:03 51°9.715 2°40.254 246.4 3.6 241 12.1
2012-05-04 09:02:08 51°9.713 2°40.247 246 3.5 242 12.1
2012-05-04 09:02:12 51°9.711 2°40.242 246.1 3.5 239 12.3
2012-05-04 09:02:18 51°9.708 2°40.234 245.7 3.5 240 12.4
2012-05-04 09:02:23 51°9.705 2°40.227 245.7 3.6 240 12.1
2012-05-04 09:02:28 51°9.703 2°40.22 245.4 3.5 242 11.8
2012-05-04 09:02:33 51°9.7 2°40.214 245.2 3.5 236 12.2
2012-05-04 09:02:38 51°9.698 2°40.207 244.8 3.5 238 12.4
2012-05-04 09:02:42 51°9.696 2°40.202 244 3.5 238 11.9
2012-05-04 09:02:48 51°9.692 2°40.194 243.2 3.6 234 12.2
2012-05-04 09:02:52 51°9.69 2°40.189 243 3.6 238 11.9
2012-05-04 09:02:58 51°9.687 2°40.182 242.4 3.6 234 12.2
2012-05-04 09:03:03 51°9.684 2°40.175 242.2 3.6 234 12.3
2012-05-04 09:03:08 51°9.681 2°40.169 241.5 3.6 235 12.1
2012-05-04 09:03:12 51°9.678 2°40.164 241.2 3.6 232 12.3
2012-05-04 09:03:18 51°9.675 2°40.156 241.1 3.6 235 12
2012-05-04 09:03:23 51°9.672 2°40.15 240.7 3.6 233 12.1
2012-05-04 09:03:28 51°9.669 2°40.144 241 3.5 234 12.2
2012-05-04 09:03:32 51°9.666 2°40.139 240.5 3.6 233 12
2012-05-04 09:03:38 51°9.663 2°40.131 240.4 3.6 233 12.1
2012-05-04 09:03:43 51°9.66 2°40.125 240.4 3.5 234 12
2012-05-04 09:03:48 51°9.657 2°40.119 240.3 3.6 231 12.2
2012-05-04 09:03:52 51°9.655 2°40.114 240.5 3.6 233 12.1
2012-05-04 09:03:58 51°9.651 2°40.107 240.6 3.6 232 12.1
2012-05-04 09:04:03 51°9.648 2°40.1 241.1 3.5 233 12
2012-05-04 09:04:08 51°9.645 2°40.094 240.9 3.6 233 12.2
2012-05-04 09:04:12 51°9.643 2°40.089 241.2 3.5 236 12.1
2012-05-04 09:04:18 51°9.639 2°40.082 241.6 3.6 233 12.1
2012-05-04 09:04:23 51°9.637 2°40.075 241.7 3.5 235 12.2
2012-05-04 09:04:28 51°9.634 2°40.069 241.9 3.5 234 12.1
2012-05-04 09:04:32 51°9.631 2°40.064 241.7 3.5 235 12.1
2012-05-04 09:04:38 51°9.628 2°40.056 242 3.6 233 12.2
2012-05-04 09:04:43 51°9.625 2°40.05 241.9 3.5 237 12.2
2012-05-04 09:04:48 51°9.622 2°40.043 242.2 3.5 233 12.3
2012-05-04 09:04:53 51°9.62 2°40.037 241.9 3.5 238 12.2
2012-05-04 09:04:58 51°9.617 2°40.031 242.4 3.5 233 12.1
2012-05-04 09:05:02 51°9.615 2°40.025 242.4 3.5 238 11.9
2012-05-04 09:05:08 51°9.611 2°40.018 242.6 3.5 234 12.1
2012-05-04 09:05:12 51°9.609 2°40.012 242.9 3.5 239 12.1
2012-05-04 09:05:18 51°9.606 2°40.005 243.1 3.6 237 12
2012-05-04 09:05:23 51°9.603 2°39.998 243.8 3.5 238 12.2
2012-05-04 09:05:28 51°9.601 2°39.992 244.1 3.5 238 12.2
2012-05-04 09:05:33 51°9.598 2°39.985 244.2 3.5 238 12.1
2012-05-04 09:05:38 51°9.596 2°39.978 244.3 3.5 239 12.1
2012-05-04 09:05:43 51°9.593 2°39.972 244.7 3.5 238 12.1
2012-05-04 09:05:48 51°9.591 2°39.965 244.7 3.5 240 12.1
2012-05-04 09:05:53 51°9.588 2°39.958 245 3.5 240 12
2012-05-04 09:05:58 51°9.586 2°39.952 245.4 3.5 242 12
2012-05-04 09:06:03 51°9.583 2°39.945 245.7 3.5 237 12.3
2012-05-04 09:06:08 51°9.581 2°39.938 245.9 3.5 240 12.1
2012-05-04 09:06:12 51°9.579 2°39.933 246.1 3.5 240 12.1
2012-05-04 09:06:18 51°9.576 2°39.925 246.5 3.5 243 11.8
2012-05-04 09:06:23 51°9.574 2°39.918 246.9 3.5 239 12.2
2012-05-04 09:06:28 51°9.572 2°39.911 247 3.5 243 12
2012-05-04 09:06:32 51°9.57 2°39.906 247.4 3.5 240 12
2012-05-04 09:06:38 51°9.568 2°39.897 247.3 3.5 244 12.1
2012-05-04 09:06:43 51°9.566 2°39.891 247.6 3.5 245 12.1
2012-05-04 09:06:48 51°9.563 2°39.884 247.6 3.5 242 12.3
2012-05-04 09:06:52 51°9.562 2°39.879 247.6 3.5 244 12.1
2012-05-04 09:06:58 51°9.559 2°39.87 248 3.5 242 12.1
2012-05-04 09:07:03 51°9.557 2°39.864 248.2 3.5 243 12.2
2012-05-04 09:07:08 51°9.555 2°39.857 247.9 3.5 244 12
2012-05-04 09:07:12 51°9.553 2°39.852 248.1 3.5 240 12.2
2012-05-04 09:07:18 51°9.55 2°39.843 247.6 3.4 245 12
2012-05-04 09:07:23 51°9.548 2°39.837 247.5 3.4 240 12.3
2012-05-04 09:07:28 51°9.546 2°39.83 247.4 3.5 242 12.2
2012-05-04 09:07:32 51°9.544 2°39.825 246.8 3.5 241 12
2012-05-04 09:07:38 51°9.541 2°39.816 246.6 3.5 242 11.9
2012-05-04 09:07:43 51°9.539 2°39.81 246.8 3.5 241 12
2012-05-04 09:07:48 51°9.536 2°39.803 246.2 3.5 240 12.2
2012-05-04 09:07:52 51°9.534 2°39.798 245.6 3.5 239 12.2
2012-05-04 09:07:58 51°9.531 2°39.79 245.4 3.4 239 12.1
2012-05-04 09:08:03 51°9.529 2°39.784 245 3.4 237 12
2012-05-04 09:08:08 51°9.526 2°39.777 244.6 3.5 238 12.2